Lokaal brand risico:
CBI


Regionaal brand risico: Meer informatie


Weerstation
Sluispark-LeuvenLeuven-Sluispark



info button van: 18-08-2019 06:59    tot: 14:59 waarschuwing voor: Regen niveau: Geel   Regen
Een zeer actieve regenzone met matige en aanhoudende regenval trekt vandaag door ons land en verlaat pas in de namiddag ons land. Met de regen sinds gisteren kunnen de neerslaghoeveelheden kunnen daardoor oplopen tot meer dan 25 mm.

Nabijgelegen vliegvelden - METAR rapporten

   
EBBR - Wilsele bij Leuven
Gewijzigd: 18-08-2019 08:50
Wat regen mogelijk, Gedeeltelijk bewolkt    Wind: OZO 7.4 km/h
Wat regen mogelijk, Gedeeltelijk bewolkt
Wind: Wind: OZO 7.4 km/h
Temperatuur: 15°C
Dauwpunt: 14°C
Vochtigheid: 94%
Barometer: 1004 hPa
Bewolking: Gedeeltelijk bewolkt
Zicht: 6 km
Bewolking: Gedeeltelijk bewolkt 152.4 m,
Gedeeltelijk bewolkt 883.9 m
EBBR 180650Z 12004KT 6000 -RA SCT005 SCT029 15/14 Q1004 TEMPO 3500 RA BKN004
EBAW - Antwerp
Gewijzigd: 18-08-2019 08:50
Wat regen mogelijk, Grotendeels bewolkt    Wind: ZZO 9.3 km/h
Wat regen mogelijk, Grotendeels bewolkt
Wind: Wind: ZZO 9.3 km/h
Temperatuur: 16°C
Dauwpunt: 15°C
Vochtigheid: 94%
Barometer: 1004 hPa
Bewolking: Grotendeels bewolkt
Zicht: 6 km
Bewolking: Gedeeltelijk bewolkt 213.4 m,
Gedeeltelijk bewolkt 426.7 m,
Grotendeels bewolkt 1005.8 m
EBAW 180650Z 16005KT 6000 -RA SCT007 SCT014 BKN033 16/15 Q1004 TEMPO 3500 RA SCT005 BKN007
EBLG - Li├Ęge
Gewijzigd: 18-08-2019 08:50
Wat regen mogelijk, Grotendeels bewolkt    Wind: NO 7.4 km/h
Wat regen mogelijk, Grotendeels bewolkt
Wind: Wind: NO 7.4 km/h
Temperatuur: 14°C
Dauwpunt: 13°C
Vochtigheid: 94%
Barometer: 1005 hPa
Bewolking: Grotendeels bewolkt
Zicht: 6 km
Bewolking: Licht bewolkt 121.9 m,
Grotendeels bewolkt 426.7 m
EBLG 180650Z 05004KT 330V070 6000 -RA FEW004 BKN014 14/13 Q1005 RERA TEMPO 2000 RA BKN006
EBCV - Mons/Bergen
Gewijzigd: 18-08-2019 09:03
Regen, Bewolking    Wind: varieert 1.9 km/h
Regen, Bewolking
Wind: Wind: varieert 1.9 km/h
Temperatuur: 15°C
Dauwpunt: 15°C
Vochtigheid: 100%
Barometer: 1004 hPa
Bewolking: Bewolking
Zicht: 3 km
Bewolking: Bewolking 518.2 m
EBCV 180703Z AUTO VRB01KT 3100 RA OVC017/// 15/15 Q1004 YLO
EHBK - Maastricht
Gewijzigd: 18-08-2019 08:55
Kleine buien, Regen, Grotendeels bewolkt    Wind: ZO 9.3 km/h
Kleine buien, Regen, Grotendeels bewolkt
Wind: Wind: ZO 9.3 km/h
Temperatuur: 15°C
Dauwpunt: 14°C
Vochtigheid: 94%
Barometer: 1005 hPa
Bewolking: Grotendeels bewolkt
Zicht: 7 km
Bewolking: Licht bewolkt 1066.8 m,
Gedeeltelijk bewolkt 1219.2 m,
Grotendeels bewolkt 1432.6 m
EHBK 180655Z AUTO 13005KT 7000 -SHRA FEW035 SCT040 BKN047 15/14 Q1005 REDZ TEMPO 7000 RADZ BKN008
ELLX - Luxemburg
Gewijzigd: 18-08-2019 08:50
Nevel, Grotendeels bewolkt    Wind: Zuiden 18.5 km/h
Nevel, Grotendeels bewolkt
Wind: Wind: Zuiden 18.5 km/h
Temperatuur: 18°C
Dauwpunt: 17°C
Vochtigheid: 94%
Barometer: 1008 hPa
Bewolking: Grotendeels bewolkt
Zicht: 5 km
Bewolking: Licht bewolkt 30.5 m,
Grotendeels bewolkt 91.4 m
ELLX 180650Z 19010KT 140V210 5000 BR FEW001 BKN003 18/17 Q1008 BECMG BKN006
EBOS - Oostende
Gewijzigd: 18-08-2019 08:50
Wat regen mogelijk, Licht bewolkt    Wind: Zuiden 7.4 km/h
Wat regen mogelijk, Licht bewolkt
Wind: Wind: Zuiden 7.4 km/h
Temperatuur: 15°C
Dauwpunt: 13°C
Vochtigheid: 88%
Barometer: 1004 hPa
Bewolking: Licht bewolkt
Zicht: 9 km
Bewolking: Licht bewolkt 121.9 m
EBOS 180650Z 19004KT 160V220 9000 -RA FEW004 15/13 Q1004 TEMPO BKN004
  

Script ontwikkeld door  Saratoga-weather.org Aangepast voor de template door  Weerstation Leuven

U vindt ons ook hier:

UK Metoffice

WeatherCloud

European Weather Network

Weather Underground

Benelux Weather Network

AWEKAS

WeatherlinkIP

Het Weer Aktueel

Apparatuur in gebruik:

Weer-station
Davis VP2 weatherstation

Weer-programma
Meteobridge

Weer-computer
D-Link DIR-505

Webleverancier
Robohost

Davis VP2 weatherstation

Meteobridge

D-Link DIR-505

Robohost